createdAt,value
2023-02-14T00:00:30.846Z,6.20
2023-02-14T00:04:54.594Z,6.00
2023-02-14T00:08:58.318Z,6.90
2023-02-14T00:13:02.320Z,6.20
2023-02-14T00:17:07.457Z,6.10
2023-02-14T00:21:11.126Z,6.20
2023-02-14T00:25:10.520Z,7.20
2023-02-14T00:29:12.015Z,7.90
2023-02-14T00:33:15.760Z,6.90
2023-02-14T00:37:18.134Z,6.60
2023-02-14T00:41:22.713Z,7.80
2023-02-14T00:45:17.243Z,7.70
2023-02-14T00:49:20.868Z,6.60
2023-02-14T00:53:25.550Z,6.40
2023-02-14T00:57:17.651Z,6.90
2023-02-14T01:01:21.344Z,7.00
2023-02-14T01:05:17.575Z,6.10
2023-02-14T01:09:21.146Z,7.00
2023-02-14T01:13:24.702Z,7.80
2023-02-14T01:17:17.389Z,7.60
2023-02-14T01:21:21.058Z,7.70
2023-02-14T01:25:24.636Z,7.40
2023-02-14T01:29:27.657Z,7.10
2023-02-14T01:33:30.882Z,8.10
2023-02-14T01:37:31.095Z,7.30
2023-02-14T01:41:34.037Z,8.60
2023-02-14T01:45:39.891Z,8.10
2023-02-14T01:50:01.887Z,7.40
2023-02-14T01:54:04.019Z,7.60
2023-02-14T01:58:07.654Z,6.20
2023-02-14T02:02:10.224Z,7.50
2023-02-14T02:06:12.629Z,6.90
2023-02-14T02:10:16.240Z,5.40
2023-02-14T02:14:42.265Z,6.30
2023-02-14T02:18:54.508Z,6.80
2023-02-14T02:23:30.819Z,6.00
2023-02-14T02:27:34.078Z,5.70
2023-02-14T02:31:57.701Z,6.70
2023-02-14T02:36:04.278Z,6.50
2023-02-14T02:40:16.927Z,5.70
2023-02-14T02:44:29.434Z,5.60
2023-02-14T02:48:45.805Z,6.30
2023-02-14T02:52:48.513Z,6.00
2023-02-14T02:57:06.922Z,5.50
2023-02-14T03:01:15.582Z,5.80
2023-02-14T03:05:15.290Z,6.90
2023-02-14T03:09:09.473Z,7.10
2023-02-14T03:13:34.394Z,6.20
2023-02-14T03:18:04.505Z,5.60
2023-02-14T03:22:06.550Z,7.90
2023-02-14T03:26:11.153Z,7.00
2023-02-14T03:30:10.168Z,6.50
2023-02-14T03:34:09.241Z,6.80
2023-02-14T03:38:08.868Z,6.40
2023-02-14T03:46:33.184Z,6.50
2023-02-14T03:50:39.878Z,5.60
2023-02-14T03:54:43.446Z,6.40
2023-02-14T03:58:47.294Z,5.10
2023-02-14T04:03:12.307Z,5.20
2023-02-14T04:06:54.337Z,8.10
2023-02-14T04:10:44.387Z,6.80
2023-02-14T04:14:43.200Z,6.30
2023-02-14T04:18:30.970Z,5.40
2023-02-14T04:22:34.556Z,5.60
2023-02-14T04:26:38.108Z,5.70
2023-02-14T04:30:35.046Z,5.10
2023-02-14T04:34:38.998Z,5.30
2023-02-14T04:38:42.568Z,4.70
2023-02-14T04:42:46.257Z,6.00
2023-02-14T04:46:49.908Z,4.80
2023-02-14T04:50:53.839Z,4.90
2023-02-14T04:54:57.445Z,4.50
2023-02-14T04:58:44.103Z,5.70
2023-02-14T05:02:48.242Z,4.40
2023-02-14T05:06:52.300Z,4.30
2023-02-14T05:11:04.669Z,4.50
2023-02-14T05:15:13.169Z,4.90
2023-02-14T05:19:16.857Z,5.10
2023-02-14T05:23:14.677Z,4.50
2023-02-14T05:27:26.753Z,4.60
2023-02-14T05:31:30.596Z,5.10
2023-02-14T05:35:33.570Z,4.40
2023-02-14T05:39:37.147Z,4.40
2023-02-14T05:43:41.319Z,4.60
2023-02-14T05:47:38.458Z,5.50
2023-02-14T05:51:47.997Z,3.90
2023-02-14T05:55:51.784Z,4.20
2023-02-14T05:59:41.099Z,4.50
2023-02-14T06:03:44.686Z,4.10
2023-02-14T06:07:48.378Z,4.20
2023-02-14T06:11:54.380Z,4.60
2023-02-14T06:15:58.846Z,5.60
2023-02-14T06:20:01.680Z,5.20
2023-02-14T06:24:05.245Z,3.80
2023-02-14T06:28:19.999Z,4.30
2023-02-14T06:32:13.986Z,4.50
2023-02-14T06:36:17.666Z,4.60
2023-02-14T06:40:13.960Z,4.50
2023-02-14T06:44:17.537Z,5.10
2023-02-14T06:48:03.746Z,6.20
2023-02-14T06:56:33.727Z,7.60
2023-02-14T07:00:30.074Z,5.60
2023-02-14T07:04:33.670Z,6.80
2023-02-14T07:13:39.318Z,5.80
2023-02-14T07:17:42.931Z,6.40
2023-02-14T07:21:18.066Z,7.00
2023-02-14T07:25:04.544Z,6.40
2023-02-14T07:29:00.658Z,5.80
2023-02-14T07:33:04.451Z,5.20
2023-02-14T07:37:08.140Z,5.40
2023-02-14T07:41:39.371Z,5.50
2023-02-14T07:45:34.490Z,4.40
2023-02-14T07:49:30.946Z,4.80
2023-02-14T08:03:11.922Z,4.70
2023-02-14T08:06:58.939Z,5.20
2023-02-14T08:11:02.774Z,6.70
2023-02-14T08:15:03.049Z,4.80
2023-02-14T08:19:06.762Z,4.00
2023-02-14T08:23:10.400Z,7.20
2023-02-14T08:27:06.818Z,4.40
2023-02-14T08:30:56.220Z,5.30
2023-02-14T08:34:53.047Z,4.60
2023-02-14T08:43:27.569Z,4.50
2023-02-14T08:52:02.780Z,4.30
2023-02-14T08:55:58.557Z,3.90
2023-02-14T09:00:02.433Z,5.50
2023-02-14T09:04:04.704Z,6.00
2023-02-14T09:08:06.038Z,5.20
2023-02-14T09:12:15.515Z,5.60
2023-02-14T09:16:17.955Z,5.50
2023-02-14T09:20:14.627Z,6.00
2023-02-14T09:24:17.013Z,5.70
2023-02-14T09:27:58.555Z,5.40
2023-02-14T09:31:52.628Z,5.40
2023-02-14T09:35:56.285Z,7.50
2023-02-14T09:39:52.834Z,4.70
2023-02-14T09:44:11.506Z,5.30
2023-02-14T09:48:20.814Z,3.90
2023-02-14T09:52:17.704Z,4.50
2023-02-14T09:56:21.293Z,2.70
2023-02-14T10:00:33.823Z,15.60
2023-02-14T10:04:46.613Z,5.10
2023-02-14T10:08:55.933Z,4.70
2023-02-14T10:13:04.948Z,2.30
2023-02-14T10:17:25.733Z,2.00
2023-02-14T10:21:31.981Z,3.20
2023-02-14T10:25:37.936Z,2.70
2023-02-14T10:29:35.242Z,2.10
2023-02-14T10:33:39.778Z,2.70
2023-02-14T10:37:55.462Z,2.60
2023-02-14T10:46:32.255Z,2.80
2023-02-14T10:50:39.206Z,7.10
2023-02-14T10:54:43.606Z,3.50
2023-02-14T10:58:41.754Z,4.40
2023-02-14T11:02:45.399Z,4.30
2023-02-14T11:06:57.663Z,3.40
2023-02-14T11:11:27.209Z,2.00
2023-02-14T11:15:20.637Z,2.50
2023-02-14T11:19:24.244Z,2.70
2023-02-14T11:23:30.611Z,4.00
2023-02-14T11:27:25.861Z,3.40
2023-02-14T11:31:29.557Z,1.90
2023-02-14T11:35:26.876Z,1.60
2023-02-14T11:39:34.103Z,2.30
2023-02-14T11:43:39.215Z,3.00
2023-02-14T11:47:41.901Z,3.60
2023-02-14T11:51:45.084Z,3.40
2023-02-14T11:55:48.634Z,2.00
2023-02-14T12:00:01.055Z,2.70
2023-02-14T12:04:04.744Z,2.50
2023-02-14T12:08:14.350Z,2.70
2023-02-14T12:12:23.884Z,3.40
2023-02-14T12:16:23.597Z,4.50
2023-02-14T12:20:32.082Z,2.40
2023-02-14T12:24:34.414Z,3.20
2023-02-14T12:28:31.974Z,3.80
2023-02-14T12:32:35.675Z,2.70
2023-02-14T12:36:45.718Z,2.80
2023-02-14T12:40:51.321Z,2.60
2023-02-14T12:44:56.508Z,2.30
2023-02-14T12:49:21.223Z,2.30
2023-02-14T12:53:32.958Z,2.20
2023-02-14T12:57:35.891Z,6.90
2023-02-14T13:01:39.198Z,2.90
2023-02-14T13:05:41.945Z,3.00
2023-02-14T13:09:47.425Z,2.70
2023-02-14T13:14:00.151Z,2.30
2023-02-14T13:18:12.587Z,3.00
2023-02-14T13:22:18.435Z,2.80
2023-02-14T13:26:33.158Z,4.30
2023-02-14T13:30:24.690Z,2.70
2023-02-14T13:34:30.808Z,3.70
2023-02-14T13:38:25.946Z,2.50
2023-02-14T13:42:15.138Z,2.20
2023-02-14T13:46:23.771Z,1.80
2023-02-14T13:50:36.314Z,2.20
2023-02-14T13:54:45.870Z,2.60
2023-02-14T13:58:54.055Z,2.70
2023-02-14T14:03:09.790Z,2.40
2023-02-14T14:06:53.125Z,2.40
2023-02-14T14:11:05.233Z,1.70
2023-02-14T14:15:15.401Z,3.30
2023-02-14T14:19:13.172Z,5.00
2023-02-14T14:23:10.678Z,2.70
2023-02-14T14:27:15.898Z,2.90
2023-02-14T14:31:19.025Z,3.00
2023-02-14T14:35:21.614Z,3.30
2023-02-14T14:39:28.156Z,2.50
2023-02-14T14:43:23.040Z,1.70
2023-02-14T14:47:19.227Z,3.50
2023-02-14T14:51:25.903Z,2.50
2023-02-14T14:55:45.210Z,2.80
2023-02-14T15:00:00.873Z,3.20
2023-02-14T15:03:48.175Z,4.00
2023-02-14T15:08:00.780Z,2.90
2023-02-14T15:12:07.910Z,2.40
2023-02-14T15:16:11.510Z,2.90
2023-02-14T15:20:21.340Z,2.10
2023-02-14T15:24:24.030Z,3.00
2023-02-14T15:28:20.389Z,3.30
2023-02-14T15:32:22.933Z,2.40
2023-02-14T15:36:26.629Z,2.90
2023-02-14T15:40:23.638Z,3.90
2023-02-14T15:44:04.282Z,2.20
2023-02-14T15:47:59.723Z,3.00
2023-02-14T15:51:56.142Z,2.50
2023-02-14T15:55:56.866Z,3.40
2023-02-14T16:00:00.314Z,4.30
2023-02-14T16:04:01.362Z,3.90
2023-02-14T16:08:05.291Z,4.20
2023-02-14T16:12:07.584Z,3.70
2023-02-14T16:16:11.272Z,3.70
2023-02-14T16:20:10.426Z,3.50
2023-02-14T16:24:15.116Z,3.80
2023-02-14T16:27:54.975Z,5.10
2023-02-14T16:36:23.608Z,3.90
2023-02-14T16:40:20.156Z,5.40
2023-02-14T16:44:15.351Z,3.20
2023-02-14T16:48:11.699Z,2.50
2023-02-14T16:52:15.323Z,3.00
2023-02-14T16:56:19.250Z,3.20
2023-02-14T17:00:30.653Z,3.80
2023-02-14T17:04:37.245Z,4.40
2023-02-14T17:13:35.569Z,5.80
2023-02-14T17:17:35.899Z,8.10
2023-02-14T17:21:31.822Z,5.50
2023-02-14T17:25:34.417Z,8.00
2023-02-14T17:29:22.880Z,15.80
2023-02-14T17:33:19.200Z,7.90
2023-02-14T17:37:01.537Z,11.20
2023-02-14T17:40:49.448Z,9.80
2023-02-14T17:44:46.073Z,10.40
2023-02-14T17:48:54.349Z,11.60
2023-02-14T17:52:36.311Z,13.30
2023-02-14T17:56:39.870Z,9.90
2023-02-14T18:00:51.557Z,10.70
2023-02-14T18:04:54.087Z,7.90
2023-02-14T18:08:42.501Z,8.40
2023-02-14T18:12:46.150Z,11.30
2023-02-14T18:16:42.847Z,12.20
2023-02-14T18:20:46.666Z,12.90
2023-02-14T18:24:50.257Z,12.60
2023-02-14T18:28:46.656Z,13.30
2023-02-14T18:32:42.162Z,12.70
2023-02-14T18:36:39.538Z,12.20
2023-02-14T18:40:33.547Z,16.50
2023-02-14T18:44:28.818Z,21.50
2023-02-14T18:48:32.390Z,18.20
2023-02-14T18:52:27.167Z,12.90
2023-02-14T18:56:23.448Z,13.30
2023-02-14T18:59:51.591Z,13.10
2023-02-14T19:03:55.317Z,11.90
2023-02-14T19:07:58.933Z,10.30
2023-02-14T19:12:02.526Z,10.40
2023-02-14T19:15:59.025Z,7.70
2023-02-14T19:20:02.611Z,9.20
2023-02-14T19:23:51.918Z,9.20
2023-02-14T19:27:49.316Z,8.30
2023-02-14T19:31:44.727Z,12.10
2023-02-14T19:35:51.408Z,8.80
2023-02-14T19:39:55.023Z,9.90
2023-02-14T19:43:51.446Z,7.10
2023-02-14T19:47:47.093Z,7.50
2023-02-14T19:56:07.137Z,11.70
2023-02-14T20:00:11.123Z,12.60
2023-02-14T20:04:15.213Z,8.40
2023-02-14T20:08:10.002Z,8.30
2023-02-14T20:12:16.662Z,7.90
2023-02-14T20:16:23.507Z,8.90
2023-02-14T20:20:27.119Z,18.30
2023-02-14T20:24:23.964Z,16.50
2023-02-14T20:28:13.404Z,13.50
2023-02-14T20:32:16.974Z,17.80
2023-02-14T20:36:19.570Z,14.20
2023-02-14T20:40:10.536Z,12.90
2023-02-14T20:44:13.707Z,11.80
2023-02-14T20:48:09.944Z,12.40
2023-02-14T20:52:11.257Z,13.80
2023-02-14T20:56:14.805Z,18.00
2023-02-14T21:00:10.880Z,14.10
2023-02-14T21:03:51.897Z,17.30
2023-02-14T21:07:44.142Z,17.00
2023-02-14T21:11:40.410Z,21.80
2023-02-14T21:15:29.782Z,20.90
2023-02-14T21:19:32.482Z,15.90
2023-02-14T21:23:14.500Z,23.10
2023-02-14T21:27:18.087Z,19.00
2023-02-14T21:31:28.221Z,20.40
2023-02-14T21:35:16.088Z,21.60
2023-02-14T21:38:57.778Z,18.10
2023-02-14T21:42:45.756Z,18.50
2023-02-14T21:46:49.462Z,15.30
2023-02-14T21:50:52.371Z,21.70
2023-02-14T21:54:56.056Z,22.40
2023-02-14T21:59:00.220Z,19.40
2023-02-14T22:03:03.817Z,16.00
2023-02-14T22:06:51.540Z,17.60
2023-02-14T22:10:47.959Z,18.30
2023-02-14T22:14:44.141Z,22.70
2023-02-14T22:18:47.734Z,15.80
2023-02-14T22:22:44.698Z,18.90
2023-02-14T22:26:48.394Z,17.20
2023-02-14T22:30:44.632Z,23.00
2023-02-14T22:34:47.155Z,24.30
2023-02-14T22:38:50.740Z,22.10
2023-02-14T22:42:38.418Z,15.90
2023-02-14T22:46:42.063Z,14.90
2023-02-14T22:50:45.785Z,22.00
2023-02-14T22:54:42.553Z,15.40
2023-02-14T22:58:37.134Z,13.80
2023-02-14T23:02:40.791Z,15.60
2023-02-14T23:06:41.886Z,14.70
2023-02-14T23:10:45.254Z,17.40
2023-02-14T23:14:18.396Z,16.50
2023-02-14T23:18:22.119Z,15.70
2023-02-14T23:22:32.486Z,16.60
2023-02-14T23:26:28.867Z,16.50
2023-02-14T23:30:18.379Z,24.20
2023-02-14T23:34:13.689Z,22.90
2023-02-14T23:38:08.957Z,19.50
2023-02-14T23:42:12.540Z,17.90
2023-02-14T23:46:16.151Z,17.10
2023-02-14T23:50:19.902Z,20.00
2023-02-14T23:54:23.529Z,23.20
2023-02-14T23:58:11.773Z,21.30
